AVA9790 SKBO-SKCG
Flight info
| Callsign | AVA9790 |
|---|---|
| Flight time | N/A |
| Altitude | 32000 |
| Route | OSUSU4R GIKPU UQ120 DIBAM UW10 UGREB UGREB3B |
| Aircraft | A320/M-SDE3FGHIRWY/LB1 |
Departure
| Time | 2026-05-04 01:20 |
|---|---|
| Airport | El Dorado International Airport (SKBO) |
Arrival
| Time | N/A |
|---|---|
| Airport | Rafael Nuñez International Airport (SKCG) |
| Time | Latitude | Longitude | Altitude | Speed | Heading |
|---|---|---|---|---|---|
| 2026-05-04 00:59 | 4.69756 | -74.14494 | 8366 ft | 0 kts | 33° |
| 2026-05-04 01:09 | 4.69755 | -74.14495 | 8366 ft | 2 kts | 33° |
| 2026-05-04 01:09 | 4.69737 | -74.14509 | 8366 ft | 2 kts | 38° |
| 2026-05-04 01:09 | 4.69716 | -74.14518 | 8366 ft | 4 kts | 341° |
| 2026-05-04 01:10 | 4.69694 | -74.14504 | 8366 ft | 4 kts | 313° |
| 2026-05-04 01:10 | 4.69681 | -74.14488 | 8366 ft | 1 kts | 307° |
| 2026-05-04 01:10 | 4.69696 | -74.14508 | 8366 ft | 4 kts | 307° |
| 2026-05-04 01:10 | 4.69711 | -74.14528 | 8366 ft | 2 kts | 307° |
| 2026-05-04 01:11 | 4.69712 | -74.14529 | 8366 ft | 0 kts | 307° |
| 2026-05-04 01:13 | 4.69715 | -74.14534 | 8366 ft | 3 kts | 307° |
| 2026-05-04 01:14 | 4.69738 | -74.14563 | 8366 ft | 7 kts | 309° |
| 2026-05-04 01:14 | 4.69775 | -74.14612 | 8366 ft | 10 kts | 306° |
| 2026-05-04 01:14 | 4.69824 | -74.14678 | 8366 ft | 9 kts | 308° |
| 2026-05-04 01:14 | 4.69866 | -74.14737 | 8366 ft | 8 kts | 303° |
| 2026-05-04 01:15 | 4.69916 | -74.14776 | 8366 ft | 11 kts | 2° |
| 2026-05-04 01:15 | 4.69988 | -74.14732 | 8366 ft | 14 kts | 34° |
| 2026-05-04 01:15 | 4.70072 | -74.14667 | 8366 ft | 17 kts | 40° |
| 2026-05-04 01:15 | 4.70173 | -74.14592 | 8366 ft | 20 kts | 36° |
| 2026-05-04 01:16 | 4.70278 | -74.14514 | 8366 ft | 17 kts | 36° |
| 2026-05-04 01:16 | 4.70384 | -74.14435 | 8366 ft | 20 kts | 38° |
| 2026-05-04 01:16 | 4.70477 | -74.14399 | 8367 ft | 14 kts | 324° |
| 2026-05-04 01:16 | 4.70542 | -74.14482 | 8366 ft | 17 kts | 307° |
| 2026-05-04 01:17 | 4.70618 | -74.14582 | 8367 ft | 19 kts | 306° |
| 2026-05-04 01:17 | 4.70704 | -74.14696 | 8367 ft | 22 kts | 303° |
| 2026-05-04 01:17 | 4.70800 | -74.14824 | 8366 ft | 24 kts | 306° |
| 2026-05-04 01:17 | 4.70907 | -74.14964 | 8366 ft | 26 kts | 307° |
| 2026-05-04 01:18 | 4.70994 | -74.15081 | 8366 ft | 19 kts | 306° |
| 2026-05-04 01:18 | 4.71070 | -74.15183 | 8366 ft | 9 kts | 307° |
| 2026-05-04 01:18 | 4.71131 | -74.15212 | 8367 ft | 11 kts | 352° |
| 2026-05-04 01:18 | 4.71220 | -74.15222 | 8366 ft | 15 kts | 353° |
| 2026-05-04 01:19 | 4.71313 | -74.15191 | 8365 ft | 15 kts | 72° |
| 2026-05-04 01:19 | 4.71259 | -74.15100 | 8365 ft | 18 kts | 127° |
| 2026-05-04 01:19 | 4.71094 | -74.14883 | 8364 ft | 72 kts | 127° |
| 2026-05-04 01:19 | 4.70650 | -74.14295 | 8367 ft | 136 kts | 126° |
| 2026-05-04 01:20 | 4.69962 | -74.13390 | 8382 ft | 186 kts | 128° |
| 2026-05-04 01:20 | 4.69185 | -74.12366 | 9139 ft | 186 kts | 126° |
| 2026-05-04 01:20 | 4.68569 | -74.11261 | 9967 ft | 178 kts | 100° |
| 2026-05-04 01:20 | 4.68815 | -74.10075 | 10445 ft | 180 kts | 51° |
| 2026-05-04 01:21 | 4.69846 | -74.09367 | 10889 ft | 185 kts | 21° |
| 2026-05-04 01:21 | 4.71098 | -74.08998 | 11228 ft | 193 kts | 19° |
| 2026-05-04 01:21 | 4.72439 | -74.08571 | 11321 ft | 209 kts | 21° |
| 2026-05-04 01:21 | 4.73844 | -74.08090 | 11505 ft | 223 kts | 21° |
| 2026-05-04 01:22 | 4.75381 | -74.07570 | 11644 ft | 241 kts | 20° |
| 2026-05-04 01:22 | 4.77009 | -74.07029 | 12070 ft | 249 kts | 20° |
| 2026-05-04 01:22 | 4.78664 | -74.06483 | 12688 ft | 250 kts | 21° |
| 2026-05-04 01:22 | 4.80396 | -74.05904 | 12917 ft | 272 kts | 21° |
| 2026-05-04 01:23 | 4.82270 | -74.05269 | 13078 ft | 295 kts | 21° |
| 2026-05-04 01:23 | 4.84263 | -74.04596 | 13506 ft | 306 kts | 21° |
| 2026-05-04 01:23 | 4.86277 | -74.03919 | 14113 ft | 311 kts | 21° |
| 2026-05-04 01:23 | 4.88343 | -74.03222 | 14698 ft | 313 kts | 21° |
| 2026-05-04 01:24 | 4.90425 | -74.02520 | 15278 ft | 316 kts | 21° |
| 2026-05-04 01:24 | 4.92520 | -74.01811 | 15849 ft | 319 kts | 22° |
| 2026-05-04 01:24 | 4.94632 | -74.01095 | 16427 ft | 321 kts | 22° |
| 2026-05-04 01:24 | 4.96773 | -74.00369 | 16657 ft | 336 kts | 22° |
| 2026-05-04 01:25 | 4.99043 | -73.99594 | 16779 ft | 353 kts | 22° |
| 2026-05-04 01:25 | 5.01424 | -73.98782 | 16985 ft | 366 kts | 21° |
| 2026-05-04 01:25 | 5.03883 | -73.98033 | 17425 ft | 372 kts | 18° |
| 2026-05-04 01:25 | 5.06413 | -73.97372 | 17918 ft | 376 kts | 17° |
| 2026-05-04 01:26 | 5.08972 | -73.96761 | 18421 ft | 379 kts | 16° |
| 2026-05-04 01:26 | 5.11533 | -73.96171 | 18871 ft | 382 kts | 16° |
| 2026-05-04 01:26 | 5.14129 | -73.95568 | 19264 ft | 384 kts | 16° |
| 2026-05-04 01:26 | 5.16751 | -73.94944 | 19671 ft | 387 kts | 17° |
| 2026-05-04 01:27 | 5.19380 | -73.94302 | 20091 ft | 389 kts | 17° |
| 2026-05-04 01:27 | 5.21987 | -73.93653 | 20519 ft | 392 kts | 17° |
| 2026-05-04 01:27 | 5.24653 | -73.92985 | 20897 ft | 395 kts | 17° |
| 2026-05-04 01:27 | 5.27336 | -73.92311 | 21291 ft | 397 kts | 17° |
| 2026-05-04 01:28 | 5.30000 | -73.91640 | 21691 ft | 399 kts | 16° |
| 2026-05-04 01:28 | 5.32710 | -73.90958 | 22085 ft | 402 kts | 16° |
| 2026-05-04 01:28 | 5.35446 | -73.90274 | 22463 ft | 404 kts | 16° |
| 2026-05-04 01:28 | 5.38158 | -73.89597 | 22824 ft | 407 kts | 16° |
| 2026-05-04 01:29 | 5.40917 | -73.88912 | 23220 ft | 409 kts | 15° |
| 2026-05-04 01:29 | 5.43695 | -73.88225 | 23587 ft | 412 kts | 15° |
| 2026-05-04 01:29 | 5.46494 | -73.87534 | 23919 ft | 415 kts | 15° |
| 2026-05-04 01:29 | 5.49314 | -73.86837 | 24220 ft | 417 kts | 15° |
| 2026-05-04 01:30 | 5.52144 | -73.86133 | 24534 ft | 420 kts | 15° |
| 2026-05-04 01:30 | 5.54989 | -73.85442 | 24846 ft | 422 kts | 14° |
| 2026-05-04 01:30 | 5.57875 | -73.84808 | 25144 ft | 425 kts | 13° |
| 2026-05-04 01:30 | 5.60782 | -73.84217 | 25444 ft | 427 kts | 12° |
| 2026-05-04 01:31 | 5.63670 | -73.83652 | 25748 ft | 429 kts | 12° |
| 2026-05-04 01:31 | 5.66618 | -73.83078 | 26052 ft | 431 kts | 12° |
| 2026-05-04 01:31 | 5.69577 | -73.82490 | 26358 ft | 433 kts | 12° |
| 2026-05-04 01:31 | 5.72549 | -73.81886 | 26666 ft | 435 kts | 13° |
| 2026-05-04 01:32 | 5.75527 | -73.81271 | 26956 ft | 438 kts | 13° |
| 2026-05-04 01:32 | 5.78485 | -73.80658 | 27234 ft | 440 kts | 13° |
| 2026-05-04 01:32 | 5.81488 | -73.80036 | 27509 ft | 442 kts | 13° |
| 2026-05-04 01:32 | 5.84515 | -73.79408 | 27791 ft | 444 kts | 12° |
| 2026-05-04 01:33 | 5.87524 | -73.78787 | 28056 ft | 446 kts | 12° |
| 2026-05-04 01:33 | 5.90572 | -73.78161 | 28331 ft | 448 kts | 12° |
| 2026-05-04 01:33 | 5.93642 | -73.77533 | 28616 ft | 450 kts | 12° |
| 2026-05-04 01:33 | 5.96727 | -73.76899 | 28898 ft | 452 kts | 12° |
| 2026-05-04 01:34 | 5.99817 | -73.76262 | 29178 ft | 454 kts | 12° |
| 2026-05-04 01:34 | 6.02879 | -73.75628 | 29432 ft | 456 kts | 12° |
| 2026-05-04 01:34 | 6.06004 | -73.74981 | 29684 ft | 458 kts | 12° |
| 2026-05-04 01:34 | 6.09145 | -73.74331 | 29936 ft | 460 kts | 12° |
| 2026-05-04 01:35 | 6.12296 | -73.73683 | 30176 ft | 462 kts | 12° |
| 2026-05-04 01:35 | 6.15453 | -73.73035 | 30382 ft | 464 kts | 12° |
| 2026-05-04 01:35 | 6.18617 | -73.72387 | 30596 ft | 465 kts | 12° |
| 2026-05-04 01:35 | 6.21799 | -73.71731 | 30795 ft | 467 kts | 12° |
| 2026-05-04 01:36 | 6.24942 | -73.71086 | 30993 ft | 468 kts | 12° |
| 2026-05-04 01:36 | 6.28143 | -73.70429 | 31200 ft | 469 kts | 12° |
| 2026-05-04 01:36 | 6.31353 | -73.69772 | 31413 ft | 470 kts | 12° |
| 2026-05-04 01:36 | 6.34568 | -73.69111 | 31718 ft | 469 kts | 12° |
| 2026-05-04 01:37 | 6.37768 | -73.68449 | 31971 ft | 469 kts | 12° |
| 2026-05-04 01:37 | 6.44020 | -73.67151 | 32032 ft | 450 kts | 12° |
| 2026-05-04 01:38 | 6.50112 | -73.65889 | 32022 ft | 445 kts | 12° |
| 2026-05-04 01:38 | 6.56188 | -73.64640 | 32011 ft | 444 kts | 12° |
| 2026-05-04 01:39 | 6.62216 | -73.63399 | 32001 ft | 444 kts | 12° |
| 2026-05-04 01:39 | 6.68273 | -73.62150 | 31991 ft | 444 kts | 12° |
| 2026-05-04 01:40 | 6.74334 | -73.60894 | 31974 ft | 444 kts | 12° |
| 2026-05-04 01:40 | 6.80362 | -73.59648 | 31945 ft | 444 kts | 12° |
| 2026-05-04 01:41 | 6.86417 | -73.58400 | 31927 ft | 444 kts | 12° |
| 2026-05-04 01:41 | 6.92482 | -73.57154 | 31916 ft | 444 kts | 12° |
| 2026-05-04 01:42 | 6.98537 | -73.56160 | 31907 ft | 444 kts | 2° |
| 2026-05-04 01:42 | 7.04733 | -73.56385 | 31911 ft | 448 kts | 358° |
| 2026-05-04 01:42 | 7.07877 | -73.56535 | 32025 ft | 453 kts | 358° |
| 2026-05-04 01:43 | 7.11049 | -73.56686 | 32146 ft | 458 kts | 358° |
| 2026-05-04 01:43 | 7.14252 | -73.56836 | 32289 ft | 462 kts | 358° |
| 2026-05-04 01:43 | 7.17429 | -73.56986 | 32522 ft | 463 kts | 358° |
| 2026-05-04 01:43 | 7.20651 | -73.57138 | 32816 ft | 463 kts | 358° |
| 2026-05-04 01:44 | 7.23878 | -73.57294 | 33125 ft | 462 kts | 358° |
| 2026-05-04 01:44 | 7.27097 | -73.57450 | 33454 ft | 461 kts | 358° |
| 2026-05-04 01:44 | 7.30304 | -73.57605 | 33771 ft | 461 kts | 358° |
| 2026-05-04 01:44 | 7.32421 | -73.57707 | 33968 ft | 460 kts | 358° |
| 2026-05-04 01:45 | 7.35627 | -73.57860 | 34242 ft | 459 kts | 358° |
| 2026-05-04 01:45 | 7.39860 | -73.58065 | 34605 ft | 458 kts | 358° |
| 2026-05-04 01:45 | 7.45156 | -73.58321 | 35035 ft | 457 kts | 358° |
| 2026-05-04 01:46 | 7.48337 | -73.58470 | 35283 ft | 456 kts | 358° |
| 2026-05-04 01:46 | 7.51509 | -73.58616 | 35525 ft | 455 kts | 358° |
| 2026-05-04 01:46 | 7.54675 | -73.58765 | 35762 ft | 455 kts | 358° |
| 2026-05-04 01:46 | 7.57847 | -73.58916 | 35898 ft | 455 kts | 358° |
| 2026-05-04 01:47 | 7.64136 | -73.59222 | 35926 ft | 454 kts | 358° |
| 2026-05-04 01:47 | 7.70426 | -73.59527 | 35928 ft | 454 kts | 358° |
| 2026-05-04 01:48 | 7.76747 | -73.59826 | 35931 ft | 454 kts | 358° |
| 2026-05-04 01:48 | 7.83064 | -73.60124 | 35932 ft | 454 kts | 358° |
| 2026-05-04 01:49 | 7.89361 | -73.60426 | 35935 ft | 454 kts | 358° |
| 2026-05-04 01:49 | 7.95688 | -73.60730 | 35936 ft | 454 kts | 357° |
| 2026-05-04 01:50 | 8.01967 | -73.61034 | 35933 ft | 454 kts | 357° |
| 2026-05-04 01:50 | 8.08300 | -73.61342 | 35934 ft | 454 kts | 357° |
| 2026-05-04 01:51 | 8.14589 | -73.61791 | 35940 ft | 454 kts | 349° |
| 2026-05-04 01:51 | 8.20487 | -73.64011 | 35938 ft | 454 kts | 328° |
| 2026-05-04 01:52 | 8.23038 | -73.65891 | 35932 ft | 453 kts | 317° |
| 2026-05-04 01:52 | 8.25225 | -73.68173 | 35928 ft | 453 kts | 311° |
| 2026-05-04 01:52 | 8.29416 | -73.72888 | 35922 ft | 453 kts | 311° |
| 2026-05-04 01:53 | 8.33649 | -73.77626 | 35926 ft | 454 kts | 311° |
| 2026-05-04 01:53 | 8.37890 | -73.82374 | 35925 ft | 455 kts | 312° |
| 2026-05-04 01:54 | 8.42110 | -73.87096 | 35926 ft | 455 kts | 312° |
| 2026-05-04 01:54 | 8.46363 | -73.91863 | 35929 ft | 456 kts | 311° |
| 2026-05-04 01:55 | 8.50608 | -73.96639 | 35928 ft | 456 kts | 311° |
| 2026-05-04 01:55 | 8.54833 | -74.01389 | 35930 ft | 456 kts | 312° |
| 2026-05-04 01:56 | 8.59086 | -74.06172 | 35927 ft | 456 kts | 312° |
| 2026-05-04 01:56 | 8.63314 | -74.10926 | 35926 ft | 456 kts | 312° |
| 2026-05-04 01:57 | 8.67568 | -74.15703 | 35925 ft | 457 kts | 312° |